Time;durP1;ratioP1;P1;durP2;ratioP2;P2;SDS_P1;SDS_P2;PMS_P1;PMS_P2;Temp;Humidity;BMP_temperature;BMP_pressure;BME280_temperature;BME280_humidity;BME280_pressure;Samples;Min_cycle;Max_cycle;Signal;HPM_P1;HPM_P2
2023/09/25 00:00:20;;;;;;;;;;;;;;;21.12;76.75;99777.59;3157789;28;19939;-69
2023/09/25 00:01:51;;;;;;;;;;;;;;;21.10;76.95;99776.88;3157112;28;19982;-69
2023/09/25 00:03:23;;;;;;;;;;;;;;;21.09;76.96;99772.56;3157845;28;19924;-68
2023/09/25 00:04:53;;;;;;;;;;;;;;;21.08;77.10;99773.53;3158173;28;19924;-67
2023/09/25 00:06:27;;;;;;;;;;;;;;;21.10;76.84;99771.59;3157546;28;20376;-68
2023/09/25 00:07:58;;;;;;;;;;;;;;;21.10;76.94;99776.88;3157968;28;19924;-68
2023/09/25 00:09:29;;;;;;;;;;;;;;;21.10;76.70;99781.34;3157759;28;19931;-67
2023/09/25 00:11:01;;;;;;;;;;;;;;;21.09;76.89;99780.50;3157366;28;19931;-69
2023/09/25 00:12:31;;;;;;;;;;;;;;;21.10;76.94;99774.25;3157899;28;20016;-69
2023/09/25 00:14:03;;;;;;;;;;;;;;;21.11;76.88;99777.72;3158164;28;19924;-69
2023/09/25 00:15:34;;;;;;;;;;;;;;;21.10;76.89;99779.53;3157010;28;20315;-69
2023/09/25 00:17:05;;;;;;;;;;;;;;;21.12;76.68;99780.25;3145379;28;19928;-69
2023/09/25 00:18:36;;;;;;;;;;;;;;;21.12;76.51;99782.88;3157849;28;19940;-68
2023/09/25 00:20:10;;;;;;;;;;;;;;;21.11;76.82;99786.50;3157464;28;19975;-67
2023/09/25 00:21:43;;;;;;;;;;;;;;;21.09;76.97;99777.88;3159580;28;19934;-68
2023/09/25 00:23:14;;;;;;;;;;;;;;;21.09;76.98;99785.81;3159392;28;20169;-67
2023/09/25 00:24:45;;;;;;;;;;;;;;;21.09;76.98;99780.50;3157953;28;19951;-67
2023/09/25 00:26:17;;;;;;;;;;;;;;;21.07;76.94;99778.97;3157391;28;19932;-68
2023/09/25 00:27:48;;;;;;;;;;;;;;;21.07;77.18;99779.81;3157600;28;19924;-68
2023/09/25 00:29:19;;;;;;;;;;;;;;;21.08;76.98;99775.34;3157642;28;19928;-69
2023/09/25 00:30:51;;;;;;;;;;;;;;;21.08;77.03;99780.63;3157537;28;19931;-68
2023/09/25 00:32:21;;;;;;;;;;;;;;;21.07;77.05;99771.88;3156750;28;19928;-68
2023/09/25 00:33:53;;;;;;;;;;;;;;;21.07;77.11;99773.69;3157485;28;20416;-67
2023/09/25 00:35:23;;;;;;;;;;;;;;;21.06;77.18;99767.56;3157450;28;19924;-67
2023/09/25 00:36:56;;;;;;;;;;;;;;;21.06;77.34;99772.00;3154486;28;20021;-66
2023/09/25 00:38:27;;;;;;;;;;;;;;;21.02;77.32;99763.50;3147689;28;19929;-67
2023/09/25 00:39:59;;;;;;;;;;;;;;;21.01;77.45;99771.59;3157333;28;19924;-67
2023/09/25 00:41:29;;;;;;;;;;;;;;;21.01;77.74;99763.63;3156933;28;19971;-68
2023/09/25 00:43:01;;;;;;;;;;;;;;;20.99;77.74;99769.06;3157945;28;20446;-68
2023/09/25 00:44:31;;;;;;;;;;;;;;;21.00;77.47;99775.19;3157650;28;20321;-68
2023/09/25 00:46:03;;;;;;;;;;;;;;;20.99;77.59;99774.34;3156969;28;19928;-67
2023/09/25 00:47:34;;;;;;;;;;;;;;;21.00;77.55;99784.00;3157468;28;19924;-67
2023/09/25 00:49:06;;;;;;;;;;;;;;;21.00;77.24;99777.81;3157277;28;20288;-67
2023/09/25 00:50:36;;;;;;;;;;;;;;;20.99;77.24;99771.69;3157430;28;19973;-68
2023/09/25 00:52:09;;;;;;;;;;;;;;;21.00;77.29;99770.75;3157742;28;20006;-67
2023/09/25 00:53:41;;;;;;;;;;;;;;;21.02;77.25;99767.94;3157074;28;19978;-68
2023/09/25 00:55:13;;;;;;;;;;;;;;;21.02;77.22;99779.38;3157427;28;20441;-68
2023/09/25 00:56:45;;;;;;;;;;;;;;;21.04;77.24;99776.59;3157438;28;20019;-68
2023/09/25 00:58:17;;;;;;;;;;;;;;;21.02;77.21;99774.06;3156980;28;20293;-67
2023/09/25 00:59:48;;;;;;;;;;;;;;;21.02;77.40;99779.38;3157593;28;19924;-67
2023/09/25 01:01:20;;;;;;;;;;;;;;;21.02;77.10;99773.25;3156769;28;20361;-68
2023/09/25 01:02:51;;;;;;;;;;;;;;;21.03;77.06;99782.84;3155371;28;19982;-68
2023/09/25 01:04:24;;;;;;;;;;;;;;;21.06;77.05;99772.84;3152328;28;19954;-68
2023/09/25 01:05:55;;;;;;;;;;;;;;;21.07;76.65;99777.16;3157607;28;19924;-68
2023/09/25 01:07:27;;;;;;;;;;;;;;;21.09;76.73;99771.75;3157273;28;19928;-68
2023/09/25 01:08:58;;;;;;;;;;;;;;;21.10;76.55;99773.41;3157475;28;19977;-68
2023/09/25 01:10:30;;;;;;;;;;;;;;;21.13;76.24;99775.78;3157790;28;20331;-68
2023/09/25 01:12:00;;;;;;;;;;;;;;;21.12;76.73;99777.59;3157020;28;19928;-68
2023/09/25 01:13:32;;;;;;;;;;;;;;;21.10;76.46;99779.53;3157264;28;19928;-68
2023/09/25 01:15:03;;;;;;;;;;;;;;;21.12;76.53;99779.41;3157521;28;19954;-68
2023/09/25 01:16:35;;;;;;;;;;;;;;;21.13;76.27;99789.84;3157221;28;20350;-69
2023/09/25 01:18:06;;;;;;;;;;;;;;;21.14;76.43;99788.88;3157339;28;19928;-69
2023/09/25 01:19:43;;;;;;;;;;;;;;;21.14;76.39;99786.22;3144686;28;20316;-68
2023/09/25 01:21:13;;;;;;;;;;;;;;;21.12;76.64;99787.34;3157220;28;19955;-68
2023/09/25 01:22:47;;;;;;;;;;;;;;;21.09;76.81;99791.09;3168282;28;20338;-68
2023/09/25 01:24:19;;;;;;;;;;;;;;;21.08;76.58;99794.72;3158602;28;19924;-68
2023/09/25 01:25:50;;;;;;;;;;;;;;;21.07;76.63;99793.03;3157381;28;19931;-68
2023/09/25 01:27:21;;;;;;;;;;;;;;;21.07;76.69;99795.69;3157085;28;19928;-68
2023/09/25 01:28:52;;;;;;;;;;;;;;;21.07;76.56;99798.34;3157799;28;20318;-68
2023/09/25 01:30:24;;;;;;;;;;;;;;;21.07;76.73;99797.50;3157104;28;19931;-68
2023/09/25 01:31:55;;;;;;;;;;;;;;;21.06;76.59;99801.97;3156412;28;19989;-68
2023/09/25 01:33:27;;;;;;;;;;;;;;;21.06;76.59;99799.31;3156930;28;20651;-68
2023/09/25 01:34:57;;;;;;;;;;;;;;;21.06;76.59;99796.69;3156478;28;19924;-68
2023/09/25 01:36:29;;;;;;;;;;;;;;;21.07;76.45;99793.03;3157047;28;20713;-68
2023/09/25 01:38:03;;;;;;;;;;;;;;;21.08;76.42;99797.34;3157161;28;19928;-69
2023/09/25 01:39:35;;;;;;;;;;;;;;;21.07;76.62;99789.56;3156975;28;20321;-69
2023/09/25 01:41:06;;;;;;;;;;;;;;;21.07;76.32;99798.34;3157408;28;19982;-69
2023/09/25 01:42:37;;;;;;;;;;;;;;;21.08;76.53;99797.34;3158246;28;19932;-69
2023/09/25 01:44:08;;;;;;;;;;;;;;;21.08;76.37;99791.22;3159186;28;19924;-69
2023/09/25 01:45:39;;;;;;;;;;;;;;;21.07;76.49;99792.22;3159711;28;20417;-69
2023/09/25 01:47:10;;;;;;;;;;;;;;;21.04;76.25;99788.03;3159204;28;20289;-69
2023/09/25 01:48:41;;;;;;;;;;;;;;;21.09;76.36;99792.94;3159474;28;19928;-68
2023/09/25 01:50:13;;;;;;;;;;;;;;;21.08;76.10;99792.06;3159275;28;19931;-69
2023/09/25 01:51:44;;;;;;;;;;;;;;;21.09;76.28;99803.50;3159135;28;19928;-67
2023/09/25 01:53:16;;;;;;;;;;;;;;;21.08;76.31;99794.72;3154329;28;19928;-68
2023/09/25 01:54:48;;;;;;;;;;;;;;;21.08;76.15;99796.53;3155319;28;19976;-68
2023/09/25 01:56:19;;;;;;;;;;;;;;;21.09;76.39;99798.22;3159257;28;19936;-69
2023/09/25 01:57:50;;;;;;;;;;;;;;;21.10;76.34;99792.78;3158500;28;19932;-67
2023/09/25 01:59:21;;;;;;;;;;;;;;;21.12;76.15;99805.88;3158939;28;20397;-68
2023/09/25 02:00:52;;;;;;;;;;;;;;;21.11;75.96;99806.84;3159692;28;19981;-69
2023/09/25 02:02:23;;;;;;;;;;;;;;;21.10;76.13;99797.25;3159028;28;19924;-68
2023/09/25 02:03:55;;;;;;;;;;;;;;;21.09;76.08;99801.69;3158844;28;19932;-68
2023/09/25 02:05:26;;;;;;;;;;;;;;;21.10;75.74;99798.06;3158623;28;19928;-68
2023/09/25 02:06:57;;;;;;;;;;;;;;;21.11;75.88;99801.53;3159092;28;19939;-69
2023/09/25 02:08:29;;;;;;;;;;;;;;;21.11;75.93;99802.38;3158951;28;19924;-68
2023/09/25 02:10:01;;;;;;;;;;;;;;;21.11;75.89;99797.09;3159358;28;19931;-68
2023/09/25 02:11:31;;;;;;;;;;;;;;;21.10;75.96;99802.53;3158935;28;19935;-68
2023/09/25 02:13:03;;;;;;;;;;;;;;;21.09;75.97;99807.00;3159039;28;19924;-70
2023/09/25 02:14:34;;;;;;;;;;;;;;;21.09;76.16;99809.63;3159089;28;20239;-68
2023/09/25 02:16:05;;;;;;;;;;;;;;;21.09;76.06;99803.50;3154639;28;19946;-68
2023/09/25 02:17:36;;;;;;;;;;;;;;;21.09;75.92;99808.81;3158035;28;20011;-68
2023/09/25 02:19:08;;;;;;;;;;;;;;;21.08;75.94;99807.94;3159388;28;19928;-68
2023/09/25 02:20:38;;;;;;;;;;;;;;;21.08;75.77;99807.94;3158966;28;19946;-67
2023/09/25 02:22:10;;;;;;;;;;;;;;;21.08;76.04;99810.59;3162953;28;19924;-68
2023/09/25 02:23:42;;;;;;;;;;;;;;;21.06;76.16;99809.91;3158902;28;20459;-67
2023/09/25 02:25:14;;;;;;;;;;;;;;;21.04;76.15;99811.03;3159001;28;19924;-68
2023/09/25 02:26:45;;;;;;;;;;;;;;;21.04;76.16;99816.31;3159219;28;19930;-67
2023/09/25 02:28:17;;;;;;;;;;;;;;;21.07;75.90;99816.88;3158804;28;19928;-66
2023/09/25 02:29:47;;;;;;;;;;;;;;;21.09;75.87;99808.81;3152003;28;19929;-68
2023/09/25 02:31:19;;;;;;;;;;;;;;;21.10;75.75;99816.59;3156907;28;19924;-68
2023/09/25 02:32:49;;;;;;;;;;;;;;;21.07;75.94;99816.88;3156798;28;19924;-69
2023/09/25 02:34:21;;;;;;;;;;;;;;;21.06;76.11;99812.56;3158761;28;19931;-69
2023/09/25 02:36:01;;;;;;;;;;;;;;;21.07;75.96;99819.53;3158132;28;19928;-68
2023/09/25 02:37:33;;;;;;;;;;;;;;;21.08;75.63;99813.25;3158581;28;19928;-69
2023/09/25 02:39:05;;;;;;;;;;;;;;;21.10;75.77;99813.97;3158816;28;19935;-69
2023/09/25 02:40:37;;;;;;;;;;;;;;;21.11;75.83;99817.44;3158702;28;19928;-69
2023/09/25 02:42:07;;;;;;;;;;;;;;;21.11;75.68;99814.78;3158922;28;19928;-69
2023/09/25 02:43:39;;;;;;;;;;;;;;;21.12;75.53;99824.44;3158258;28;20051;-69
2023/09/25 02:45:10;;;;;;;;;;;;;;;21.11;75.52;99828.84;3158728;28;19931;-69
2023/09/25 02:46:42;;;;;;;;;;;;;;;21.13;75.46;99826.91;3158647;28;20015;-68
2023/09/25 02:48:12;;;;;;;;;;;;;;;21.15;75.31;99824.16;3158630;28;19943;-68
2023/09/25 02:49:44;;;;;;;;;;;;;;;21.17;75.18;99829.28;3158775;28;20409;-68
2023/09/25 02:51:14;;;;;;;;;;;;;;;21.18;75.15;99823.88;3158589;28;19932;-68
2023/09/25 02:52:46;;;;;;;;;;;;;;;21.17;74.99;99824.00;3158490;28;20445;-67
2023/09/25 02:54:18;;;;;;;;;;;;;;;21.20;74.96;99827.19;3157619;28;19935;-67
2023/09/25 02:55:50;;;;;;;;;;;;;;;21.21;74.74;99831.56;3158614;28;19967;-67
2023/09/25 02:57:21;;;;;;;;;;;;;;;21.21;74.83;99833.34;3158542;28;19928;-68
2023/09/25 02:59:14;;;;;;;;;;;;;;;21.16;74.78;99822.34;3158684;28;19924;-67
2023/09/25 03:00:45;;;;;;;;;;;;;;;21.19;74.81;99833.47;3158071;28;19924;-67
2023/09/25 03:02:18;;;;;;;;;;;;;;;21.17;75.19;99832.78;3158234;28;19928;-68
2023/09/25 03:03:48;;;;;;;;;;;;;;;21.13;75.33;99837.50;3158317;28;19982;-67
2023/09/25 03:05:20;;;;;;;;;;;;;;;21.16;75.22;99832.94;3158038;28;20416;-66
2023/09/25 03:06:51;;;;;;;;;;;;;;;21.17;75.34;99840.72;3158754;28;19924;-67
2023/09/25 03:08:22;;;;;;;;;;;;;;;21.18;75.13;99841.56;3158221;28;19928;-67
2023/09/25 03:09:54;;;;;;;;;;;;;;;21.18;74.89;99842.41;3158172;28;19924;-67
2023/09/25 03:11:26;;;;;;;;;;;;;;;21.20;74.85;99851.03;3158514;28;20389;-67
2023/09/25 03:12:56;;;;;;;;;;;;;;;21.22;74.62;99840.31;3158407;28;19928;-67
2023/09/25 03:14:28;;;;;;;;;;;;;;;21.22;74.49;99850.91;3152268;28;19947;-68
2023/09/25 03:15:59;;;;;;;;;;;;;;;21.20;74.78;99843.09;3154767;28;19925;-67
2023/09/25 03:17:31;;;;;;;;;;;;;;;21.20;74.53;99845.75;3151156;28;19924;-68
2023/09/25 03:19:02;;;;;;;;;;;;;;;21.22;74.43;99846.44;3158069;28;19924;-67
2023/09/25 03:20:33;;;;;;;;;;;;;;;21.22;74.53;99848.28;3158330;28;19936;-66
2023/09/25 03:22:04;;;;;;;;;;;;;;;21.22;74.57;99856.22;3161156;28;19924;-67
2023/09/25 03:23:35;;;;;;;;;;;;;;;21.22;74.47;99853.56;3158423;28;20603;-68
2023/09/25 03:25:08;;;;;;;;;;;;;;;21.22;74.53;99858.88;3158311;28;19935;-67
2023/09/25 03:26:40;;;;;;;;;;;;;;;21.21;74.54;99860.69;3158179;28;19990;-67
2023/09/25 03:28:10;;;;;;;;;;;;;;;21.23;74.40;99855.22;3145938;28;19924;-67
2023/09/25 03:29:42;;;;;;;;;;;;;;;21.23;74.08;99855.22;3157882;28;20010;-68
2023/09/25 03:31:12;;;;;;;;;;;;;;;21.23;74.21;99852.59;3157982;28;19931;-67
2023/09/25 03:32:44;;;;;;;;;;;;;;;21.24;74.07;99860.41;3158266;28;19924;-68
2023/09/25 03:34:15;;;;;;;;;;;;;;;21.23;74.11;99863.19;3158178;28;19932;-68
2023/09/25 03:35:46;;;;;;;;;;;;;;;21.21;74.26;99854.53;3157376;28;19955;-68
2023/09/25 03:37:18;;;;;;;;;;;;;;;21.20;74.33;99860.81;3158098;28;19928;-67
2023/09/25 03:38:48;;;;;;;;;;;;;;;21.19;74.37;99864.44;3158042;28;19924;-68
2023/09/25 03:40:21;;;;;;;;;;;;;;;21.17;74.54;99858.41;3158387;28;19931;-67
2023/09/25 03:41:52;;;;;;;;;;;;;;;21.16;74.60;99856.75;3157935;28;20397;-68
2023/09/25 03:43:23;;;;;;;;;;;;;;;21.14;74.49;99857.72;3157512;28;19924;-68
2023/09/25 03:44:54;;;;;;;;;;;;;;;21.14;74.51;99857.72;3158295;28;20014;-68
2023/09/25 03:46:25;;;;;;;;;;;;;;;21.14;74.64;99848.94;3158280;28;19924;-67
2023/09/25 03:47:56;;;;;;;;;;;;;;;21.13;74.59;99856.03;3157726;28;21837;-68
2023/09/25 03:49:27;;;;;;;;;;;;;;;21.12;74.74;99853.56;3157927;28;19924;-68
2023/09/25 03:50:58;;;;;;;;;;;;;;;21.11;74.69;99857.97;3150993;28;19935;-68
2023/09/25 03:52:29;;;;;;;;;;;;;;;21.09;74.88;99854.66;3158091;28;19934;-69
2023/09/25 03:54:00;;;;;;;;;;;;;;;21.09;74.72;99853.81;3152326;28;20519;-68
2023/09/25 03:55:33;;;;;;;;;;;;;;;21.06;74.95;99860.22;3158093;28;19928;-68
2023/09/25 03:57:03;;;;;;;;;;;;;;;21.05;74.97;99863.81;3156511;28;19924;-68
2023/09/25 03:58:35;;;;;;;;;;;;;;;21.02;74.96;99869.38;3157463;28;19930;-68
2023/09/25 04:00:06;;;;;;;;;;;;;;;21.03;74.76;99870.22;3154746;28;20739;-67
2023/09/25 04:01:38;;;;;;;;;;;;;;;21.06;74.92;99869.94;3150728;28;19924;-67
2023/09/25 04:03:08;;;;;;;;;;;;;;;21.05;75.11;99866.47;3148279;28;20436;-67
2023/09/25 04:04:40;;;;;;;;;;;;;;;21.02;75.21;99861.44;3149331;28;19935;-67
2023/09/25 04:06:10;;;;;;;;;;;;;;;21.02;75.09;99868.56;3155272;28;19925;-68
2023/09/25 04:07:42;;;;;;;;;;;;;;;21.02;74.82;99861.44;3155354;28;19950;-70
2023/09/25 04:09:13;;;;;;;;;;;;;;;21.02;74.98;99861.44;3156375;28;19931;-71
2023/09/25 04:10:46;;;;;;;;;;;;;;;21.03;75.11;99856.97;3156257;28;19924;-72
2023/09/25 04:12:16;;;;;;;;;;;;;;;21.01;74.97;99864.25;3151820;28;19935;-75
2023/09/25 04:13:48;;;;;;;;;;;;;;;21.01;75.15;99864.25;3155369;28;19930;-72
2023/09/25 04:15:18;;;;;;;;;;;;;;;20.99;75.10;99867.00;3154094;28;19968;-76
2023/09/25 04:16:50;;;;;;;;;;;;;;;20.98;75.64;99861.88;3155905;28;19924;-74
2023/09/25 04:18:21;;;;;;;;;;;;;;;20.98;75.58;99865.34;3157500;28;19928;-74
2023/09/25 04:19:52;;;;;;;;;;;;;;;21.00;75.41;99863.41;3157738;28;19928;-73
2023/09/25 04:21:24;;;;;;;;;;;;;;;20.99;75.29;99874.94;3157805;28;19946;-73
2023/09/25 04:22:56;;;;;;;;;;;;;;;21.00;75.03;99879.28;3158391;28;19928;-75
2023/09/25 04:24:27;;;;;;;;;;;;;;;21.03;74.96;99879.03;3145738;28;19928;-74
2023/09/25 04:26:00;;;;;;;;;;;;;;;21.03;75.15;99881.69;3156732;28;19931;-75
2023/09/25 04:27:32;;;;;;;;;;;;;;;21.06;74.82;99878.75;3157420;28;19928;-73
2023/09/25 04:29:04;;;;;;;;;;;;;;;21.08;74.88;99875.97;3157394;28;19924;-73
2023/09/25 04:30:36;;;;;;;;;;;;;;;21.07;74.73;99884.88;3157809;28;20254;-71
2023/09/25 04:32:06;;;;;;;;;;;;;;;21.07;74.77;99880.41;3157521;28;20007;-76
2023/09/25 04:33:38;;;;;;;;;;;;;;;21.06;74.82;99892.00;3157203;28;20589;-70
2023/09/25 04:35:11;;;;;;;;;;;;;;;21.06;74.80;99886.69;3157263;28;20027;-77
2023/09/25 04:36:45;;;;;;;;;;;;;;;21.08;74.74;99889.19;3157874;28;20006;-73
2023/09/25 04:38:17;;;;;;;;;;;;;;;21.09;74.68;99890.91;3157521;28;20476;-70
2023/09/25 04:39:49;;;;;;;;;;;;;;;21.10;74.91;99881.97;3157297;28;19932;-73
2023/09/25 04:41:21;;;;;;;;;;;;;;;21.09;74.55;99883.78;3157299;28;19970;-69
2023/09/25 04:42:53;;;;;;;;;;;;;;;21.07;75.13;99893.66;3158079;28;19974;-71
2023/09/25 04:44:24;;;;;;;;;;;;;;;21.08;74.84;99887.38;3157272;28;19932;-73
2023/09/25 04:45:58;;;;;;;;;;;;;;;21.09;75.00;99891.72;3157372;28;20454;-69
2023/09/25 04:47:29;;;;;;;;;;;;;;;21.11;74.86;99895.06;3156814;28;20441;-71
2023/09/25 04:49:01;;;;;;;;;;;;;;;21.12;74.69;99893.28;3157387;28;20283;-69
2023/09/25 04:50:32;;;;;;;;;;;;;;;21.11;74.55;99894.22;3154991;28;19990;-70
2023/09/25 04:52:03;;;;;;;;;;;;;;;21.11;74.49;99899.53;3150855;28;20077;-74
2023/09/25 04:53:35;;;;;;;;;;;;;;;21.11;74.73;99897.69;3152724;28;19930;-73
2023/09/25 04:55:06;;;;;;;;;;;;;;;21.12;74.88;99896.75;3157427;28;19928;-75
2023/09/25 04:56:39;;;;;;;;;;;;;;;21.11;75.08;99897.69;3157383;28;20164;-68
2023/09/25 04:58:11;;;;;;;;;;;;;;;21.12;74.96;99895.91;3157031;28;19985;-69
2023/09/25 04:59:43;;;;;;;;;;;;;;;21.14;75.01;99897.44;3157256;28;19960;-74
2023/09/25 05:01:15;;;;;;;;;;;;;;;21.12;75.16;99893.28;3157194;28;20014;-67
2023/09/25 05:02:46;;;;;;;;;;;;;;;21.11;75.39;99896.88;3157485;28;19936;-71
2023/09/25 05:04:17;;;;;;;;;;;;;;;21.09;75.27;99897.03;3156807;28;20164;-71
2023/09/25 05:05:50;;;;;;;;;;;;;;;21.09;75.63;99904.13;3156999;28;20453;-71
2023/09/25 05:07:20;;;;;;;;;;;;;;;21.11;75.52;99896.88;3157571;28;20030;-70
2023/09/25 05:08:52;;;;;;;;;;;;;;;21.13;74.99;99898.41;3156994;28;19928;-71
2023/09/25 05:10:23;;;;;;;;;;;;;;;21.15;75.01;99895.66;3157185;28;19944;-70
2023/09/25 05:12:29;;;;;;;;;;;;;;;21.17;75.00;99904.28;3157300;28;20049;-69
2023/09/25 05:14:15;;;;;;;;;;;;;;;21.18;74.64;99905.97;3155551;28;19928;-75
2023/09/25 05:17:56;;;;;;;;;;;;;;;21.21;74.53;99905.69;3140627;28;19932;-75
2023/09/25 05:19:27;;;;;;;;;;;;;;;21.21;74.38;99907.50;3159752;28;20342;-78
2023/09/25 05:20:59;;;;;;;;;;;;;;;21.22;74.51;99906.53;3159714;28;19935;-76
2023/09/25 05:22:29;;;;;;;;;;;;;;;21.22;74.48;99903.88;3164577;28;19980;-73
2023/09/25 05:24:01;;;;;;;;;;;;;;;21.22;74.52;99904.72;3159660;28;19928;-72
2023/09/25 05:25:33;;;;;;;;;;;;;;;21.20;74.53;99901.34;3159399;28;19939;-73
2023/09/25 05:27:03;;;;;;;;;;;;;;;21.20;74.51;99908.47;3159346;28;19925;-70
2023/09/25 05:28:35;;;;;;;;;;;;;;;21.21;74.31;99910.13;3159953;28;19924;-73
2023/09/25 05:30:09;;;;;;;;;;;;;;;21.23;74.26;99909.03;3159538;28;19947;-75
2023/09/25 05:31:41;;;;;;;;;;;;;;;21.26;73.94;99903.47;3151787;28;19928;-73
2023/09/25 05:33:11;;;;;;;;;;;;;;;21.28;73.85;99906.00;3158738;28;19932;-77
2023/09/25 05:34:43;;;;;;;;;;;;;;;21.29;73.82;99903.19;3158947;28;20019;-74
2023/09/25 05:36:14;;;;;;;;;;;;;;;21.30;74.14;99915.47;3158979;28;20349;-73
2023/09/25 05:37:47;;;;;;;;;;;;;;;21.27;74.44;99915.75;3159050;28;19924;-78
2023/09/25 05:39:19;;;;;;;;;;;;;;;21.27;74.34;99920.22;3159517;28;20420;-76
2023/09/25 05:40:49;;;;;;;;;;;;;;;21.25;74.66;99920.34;3159030;28;20345;-79
2023/09/25 05:42:21;;;;;;;;;;;;;;;21.22;74.80;99922.44;3159215;28;20075;-74
2023/09/25 05:43:53;;;;;;;;;;;;;;;21.20;75.20;99924.34;3157737;28;19928;-72
2023/09/25 05:45:26;;;;;;;;;;;;;;;21.20;75.09;99934.94;3159052;28;20317;-71
2023/09/25 05:46:57;;;;;;;;;;;;;;;21.13;75.70;99930.19;3159237;28;20466;-73
2023/09/25 05:48:29;;;;;;;;;;;;;;;21.11;75.83;99932.13;3159422;28;19982;-73
2023/09/25 05:50:00;;;;;;;;;;;;;;;21.11;75.75;99933.94;3153785;28;20019;-74
2023/09/25 05:51:31;;;;;;;;;;;;;;;21.08;75.93;99936.84;3158978;28;19932;-74
2023/09/25 05:53:04;;;;;;;;;;;;;;;21.07;75.91;99943.13;3155712;28;19924;-75
2023/09/25 05:54:35;;;;;;;;;;;;;;;21.05;75.98;99932.66;3152124;28;19924;-73
2023/09/25 05:56:07;;;;;;;;;;;;;;;21.02;76.01;99935.56;3159141;28;19928;-71
2023/09/25 05:57:38;;;;;;;;;;;;;;;20.98;76.49;99943.94;3158798;28;19932;-71
2023/09/25 05:59:09;;;;;;;;;;;;;;;20.93;76.37;99938.19;3159022;28;20018;-72
2023/09/25 06:00:46;;;;;;;;;;;;;;;20.91;76.53;99946.25;3158785;28;19981;-73
2023/09/25 06:02:18;;;;;;;;;;;;;;;20.93;76.33;99936.38;3151877;28;19935;-73
2023/09/25 06:03:49;;;;;;;;;;;;;;;20.90;76.39;99944.59;3156523;28;20437;-73
2023/09/25 06:05:21;;;;;;;;;;;;;;;20.88;76.46;99935.94;3158182;28;19951;-72
2023/09/25 06:06:52;;;;;;;;;;;;;;;20.88;76.58;99943.88;3157347;28;19935;-72
2023/09/25 06:08:23;;;;;;;;;;;;;;;20.89;76.54;99937.63;3158729;28;19924;-73
2023/09/25 06:09:55;;;;;;;;;;;;;;;20.93;76.14;99943.47;3159036;28;20370;-73
2023/09/25 06:11:27;;;;;;;;;;;;;;;20.95;76.22;99945.03;3158770;28;19928;-68
2023/09/25 06:12:59;;;;;;;;;;;;;;;20.96;76.17;99952.00;3159091;28;20001;-68
2023/09/25 06:14:30;;;;;;;;;;;;;;;20.96;76.10;99953.81;3154622;28;19989;-70
2023/09/25 06:16:03;;;;;;;;;;;;;;;20.94;76.38;99956.59;3154746;28;20030;-73
2023/09/25 06:17:34;;;;;;;;;;;;;;;20.91;76.40;99962.13;3146362;28;19925;-70
2023/09/25 06:19:05;;;;;;;;;;;;;;;20.89;76.57;99964.94;3157938;28;20065;-69
2023/09/25 06:20:36;;;;;;;;;;;;;;;20.88;76.55;99957.97;3159126;28;20316;-71
2023/09/25 06:22:08;;;;;;;;;;;;;;;20.90;76.46;99960.47;3164160;28;19924;-70
2023/09/25 06:23:39;;;;;;;;;;;;;;;20.93;76.42;99962.03;3161799;28;19974;-71
2023/09/25 06:25:13;;;;;;;;;;;;;;;20.98;76.17;99965.13;3159220;28;19924;-69
2023/09/25 06:26:46;;;;;;;;;;;;;;;21.02;76.12;99961.22;3159371;28;19930;-73
2023/09/25 06:28:20;;;;;;;;;;;;;;;21.03;75.98;99955.81;3156440;28;19928;-69
2023/09/25 06:29:51;;;;;;;;;;;;;;;21.08;75.97;99964.16;3157476;28;19928;-70
2023/09/25 06:31:24;;;;;;;;;;;;;;;21.16;75.46;99965.34;3157742;28;19935;-71
2023/09/25 06:32:55;;;;;;;;;;;;;;;21.21;75.20;99966.63;3147923;28;20421;-70
2023/09/25 06:34:26;;;;;;;;;;;;;;;21.25;75.16;99972.47;3156142;28;19930;-71
2023/09/25 06:35:57;;;;;;;;;;;;;;;21.39;75.45;99972.16;3155984;28;20401;-71
2023/09/25 06:37:30;;;;;;;;;;;;;;;21.59;75.06;99978.31;3153270;28;19924;-70
2023/09/25 06:39:01;;;;;;;;;;;;;;;21.69;74.66;99975.72;3158986;28;19932;-69
2023/09/25 06:40:32;;;;;;;;;;;;;;;21.82;74.29;99981.59;3158586;28;19931;-70
2023/09/25 06:42:04;;;;;;;;;;;;;;;21.89;73.73;99980.06;3158499;28;19951;-70
2023/09/25 06:43:34;;;;;;;;;;;;;;;21.89;73.31;99980.06;3158691;28;20306;-69
2023/09/25 06:45:06;;;;;;;;;;;;;;;21.87;73.19;99983.84;3158355;28;19950;-66
2023/09/25 06:46:38;;;;;;;;;;;;;;;21.83;73.16;99977.97;3155319;28;19924;-68
2023/09/25 06:48:10;;;;;;;;;;;;;;;21.81;73.22;99982.56;3158166;28;19924;-70
2023/09/25 06:49:41;;;;;;;;;;;;;;;21.85;72.94;99980.47;3158171;28;20034;-68
2023/09/25 06:51:12;;;;;;;;;;;;;;;21.93;73.03;99973.50;3157979;28;19928;-70
2023/09/25 06:52:43;;;;;;;;;;;;;;;22.09;72.81;99972.13;3158183;28;19962;-69
2023/09/25 06:56:25;;;;;;;;;;;;;;;22.68;71.84;99973.78;3131836;28;20024;-68
2023/09/25 06:58:10;;;;;;;;;;;;;;;22.87;71.42;99979.06;3145096;28;19924;-69
2023/09/25 06:59:42;;;;;;;;;;;;;;;22.98;70.56;99978.06;3149001;28;19998;-69
2023/09/25 07:01:13;;;;;;;;;;;;;;;23.16;70.53;99978.16;3158081;28;20385;-69
2023/09/25 07:02:46;;;;;;;;;;;;;;;23.33;69.97;99982.69;3158492;28;19968;-69
2023/09/25 07:04:19;;;;;;;;;;;;;;;23.39;69.49;99975.94;3158301;28;19935;-69
2023/09/25 07:05:51;;;;;;;;;;;;;;;23.45;69.39;99983.31;3157023;28;19967;-71
2023/09/25 07:07:21;;;;;;;;;;;;;;;23.52;69.01;99973.78;3158411;28;20425;-70
2023/09/25 07:08:53;;;;;;;;;;;;;;;23.59;68.63;99968.72;3158509;28;19924;-73
2023/09/25 07:10:24;;;;;;;;;;;;;;;23.64;68.46;99976.25;3146699;28;19924;-72
2023/09/25 07:11:55;;;;;;;;;;;;;;;23.70;67.74;99976.50;3158022;28;20493;-70
2023/09/25 07:13:27;;;;;;;;;;;;;;;23.88;67.64;99981.84;3158208;28;19928;-72
2023/09/25 07:15:00;;;;;;;;;;;;;;;24.02;67.41;99981.34;3158195;28;19924;-69
2023/09/25 07:16:31;;;;;;;;;;;;;;;24.10;66.83;99983.22;3150612;28;19980;-69
2023/09/25 07:18:05;;;;;;;;;;;;;;;24.15;66.34;99980.94;3156476;28;20401;-69
2023/09/25 07:19:35;;;;;;;;;;;;;;;24.20;65.89;99978.69;3157936;28;19981;-68
2023/09/25 07:21:07;;;;;;;;;;;;;;;24.14;65.26;99971.31;3158343;28;19928;-67
2023/09/25 07:22:38;;;;;;;;;;;;;;;24.10;64.80;99977.91;3159057;28;19930;-67
2023/09/25 07:24:09;;;;;;;;;;;;;;;24.09;64.88;99976.25;3154664;28;20409;-66
2023/09/25 07:25:40;;;;;;;;;;;;;;;24.10;64.74;99987.72;3158173;28;20320;-66
2023/09/25 07:27:12;;;;;;;;;;;;;;;24.12;64.50;99991.91;3158047;28;20010;-67
2023/09/25 07:28:42;;;;;;;;;;;;;;;24.26;64.44;99994.03;3158265;28;19931;-65
2023/09/25 07:30:14;;;;;;;;;;;;;;;24.38;64.16;99996.47;3155293;28;19928;-66
2023/09/25 07:31:45;;;;;;;;;;;;;;;24.38;63.53;99996.47;3157836;28;20309;-68
2023/09/25 07:33:18;;;;;;;;;;;;;;;24.23;63.11;99994.34;3156882;28;19928;-73
2023/09/25 07:34:48;;;;;;;;;;;;;;;24.05;63.24;99999.66;3152923;28;19939;-71
2023/09/25 07:36:20;;;;;;;;;;;;;;;24.02;63.57;99999.13;3157838;28;19930;-70
2023/09/25 07:37:50;;;;;;;;;;;;;;;24.05;63.20;99993.50;3158008;28;19932;-71
2023/09/25 07:39:23;;;;;;;;;;;;;;;24.10;63.23;99993.88;3157883;28;19928;-72
2023/09/25 07:40:54;;;;;;;;;;;;;;;24.21;63.35;99996.31;3157259;28;19924;-77
2023/09/25 07:42:26;;;;;;;;;;;;;;;24.36;62.72;99988.63;3158314;28;19924;-75
2023/09/25 07:43:59;;;;;;;;;;;;;;;24.41;62.03;99990.84;3157913;28;19977;-76
2023/09/25 07:45:32;;;;;;;;;;;;;;;24.50;62.52;99993.44;3154473;28;19932;-72
2023/09/25 07:47:07;;;;;;;;;;;;;;;24.66;62.29;99987.38;3157491;28;19928;-73
2023/09/25 07:48:39;;;;;;;;;;;;;;;24.89;61.50;99997.53;3158282;28;19928;-72
2023/09/25 07:50:10;;;;;;;;;;;;;;;25.04;60.72;99995.13;3153770;28;19942;-75
2023/09/25 07:51:43;;;;;;;;;;;;;;;25.15;60.44;99995.72;3151049;28;19935;-73
2023/09/25 07:53:15;;;;;;;;;;;;;;;25.14;60.11;99996.72;3152773;28;20440;-75
2023/09/25 07:54:46;;;;;;;;;;;;;;;25.15;60.04;99987.72;3145645;28;19924;-74
2023/09/25 07:56:17;;;;;;;;;;;;;;;25.24;59.75;99998.44;3156975;28;19928;-74
2023/09/25 07:57:49;;;;;;;;;;;;;;;25.24;58.97;99995.75;3156729;28;19928;-72
2023/09/25 07:59:25;;;;;;;;;;;;;;;25.12;58.70;99993.34;3157833;28;19935;-74
2023/09/25 08:01:00;;;;;;;;;;;;;;;24.97;58.45;99989.59;3157791;28;20027;-73
2023/09/25 08:02:38;;;;;;;;;;;;;;;24.86;58.67;99993.34;3157988;28;20389;-73